Eyebrow, Canada
Current Conditions -  °F | °C
As of 12:00 PM on Friday 24 Oct 2014 (Local Time) from CYMJ Reporting Station
Scattered Clouds Scattered Clouds  
Wind Chill: 55°   Ceiling: Unl
Heat Index: 55°   Visibility: 15mi
Dew Point: 34°   Wind: 21mph
Humidity: 44%   Direction: 300°WNW
Pressure: 29.84"   Gusts: 32mph
Location:  50.8°N, 106.15°W
Report Text: CYMJ 241800Z 30018G28KT 15SM FEW100 SCT250 13/01 A2984 RMKAC1CI1 SLP117
Loading
Personal Weather Stations






























Interactive Weather Map
Tropical Storm Tracking
New forecast layout! Learn more

10-Day Weather Forecast

Advertisements
Track Severe Weather on mobile